createdAt,value
2023-08-18T00:00:53.005Z,1.93
2023-08-18T00:03:56.727Z,1.53
2023-08-18T00:07:00.482Z,1.73
2023-08-18T00:10:05.459Z,5.03
2023-08-18T00:13:09.291Z,2.23
2023-08-18T00:16:15.330Z,5.83
2023-08-18T00:19:19.123Z,1.60
2023-08-18T00:22:22.828Z,2.93
2023-08-18T00:25:26.664Z,5.87
2023-08-18T00:28:30.296Z,2.10
2023-08-18T00:31:35.396Z,1.73
2023-08-18T00:34:39.030Z,2.60
2023-08-18T00:37:43.935Z,1.77
2023-08-18T00:40:47.552Z,3.80
2023-08-18T00:43:51.183Z,7.10
2023-08-18T00:46:56.330Z,1.60
2023-08-18T00:50:01.460Z,1.33
2023-08-18T00:53:05.893Z,1.83
2023-08-18T00:56:11.349Z,2.87
2023-08-18T00:59:15.731Z,3.20
2023-08-18T01:02:21.531Z,2.30
2023-08-18T01:05:25.223Z,1.80
2023-08-18T01:08:29.040Z,2.27
2023-08-18T01:11:41.808Z,1.90
2023-08-18T01:15:01.160Z,1.70
2023-08-18T01:18:08.231Z,4.67
2023-08-18T01:21:14.275Z,4.23
2023-08-18T01:24:19.281Z,1.00
2023-08-18T01:27:23.006Z,3.90
2023-08-18T01:30:35.251Z,2.47
2023-08-18T01:33:45.653Z,4.63
2023-08-18T01:36:52.945Z,1.20
2023-08-18T01:40:02.507Z,3.90
2023-08-18T01:43:09.944Z,2.83
2023-08-18T01:46:13.666Z,4.30
2023-08-18T01:49:17.654Z,2.83
2023-08-18T01:52:21.358Z,1.87
2023-08-18T01:55:26.334Z,1.27
2023-08-18T01:58:30.164Z,1.07
2023-08-18T02:01:33.891Z,1.33
2023-08-18T02:04:37.666Z,2.20
2023-08-18T02:07:41.218Z,0.90
2023-08-18T02:10:46.302Z,3.93
2023-08-18T02:13:49.886Z,2.57
2023-08-18T02:16:53.940Z,1.20
2023-08-18T02:19:59.767Z,3.47
2023-08-18T02:23:03.428Z,1.60
2023-08-18T02:26:10.894Z,2.20
2023-08-18T02:29:14.638Z,1.23
2023-08-18T02:32:19.738Z,4.40
2023-08-18T02:35:24.109Z,1.37
2023-08-18T02:38:27.997Z,1.83
2023-08-18T02:41:33.162Z,1.83
2023-08-18T02:44:36.797Z,3.33
2023-08-18T02:47:40.660Z,1.40
2023-08-18T02:50:44.468Z,3.40
2023-08-18T02:53:50.168Z,2.33
2023-08-18T02:56:55.194Z,2.77
2023-08-18T02:59:58.870Z,3.13
2023-08-18T03:03:02.598Z,4.20
2023-08-18T03:06:09.195Z,1.23
2023-08-18T03:09:13.022Z,4.33
2023-08-18T03:12:18.324Z,1.37
2023-08-18T03:15:22.668Z,1.60
2023-08-18T03:18:26.528Z,2.83
2023-08-18T03:21:30.174Z,1.30
2023-08-18T03:24:33.874Z,3.27
2023-08-18T03:27:38.890Z,2.00
2023-08-18T03:30:43.409Z,1.40
2023-08-18T03:33:47.134Z,1.53
2023-08-18T03:36:50.796Z,1.47
2023-08-18T03:39:55.888Z,5.80
2023-08-18T03:43:01.296Z,1.60
2023-08-18T03:46:22.025Z,2.47
2023-08-18T03:49:25.689Z,1.63
2023-08-18T03:52:29.431Z,2.17
2023-08-18T03:55:33.310Z,1.60
2023-08-18T03:58:38.397Z,3.53
2023-08-18T04:01:42.133Z,2.27
2023-08-18T04:04:46.009Z,2.67
2023-08-18T04:07:49.714Z,2.13
2023-08-18T04:10:53.405Z,2.90
2023-08-18T04:13:58.603Z,2.70
2023-08-18T04:17:02.271Z,1.70
2023-08-18T04:20:10.239Z,2.43
2023-08-18T04:23:13.864Z,1.77
2023-08-18T04:26:17.693Z,2.10
2023-08-18T04:29:23.279Z,3.83
2023-08-18T04:32:27.324Z,3.27
2023-08-18T04:35:31.345Z,2.73
2023-08-18T04:38:35.028Z,2.37
2023-08-18T04:41:38.905Z,3.50
2023-08-18T04:44:44.096Z,1.70
2023-08-18T04:47:47.992Z,2.23
2023-08-18T04:50:51.975Z,2.17
2023-08-18T04:53:55.690Z,2.20
2023-08-18T04:57:01.230Z,4.27
2023-08-18T05:00:09.544Z,2.57
2023-08-18T05:03:13.884Z,6.13
2023-08-18T05:06:17.674Z,4.40
2023-08-18T05:09:21.377Z,3.50
2023-08-18T05:12:25.356Z,2.20
2023-08-18T05:15:30.542Z,3.70
2023-08-18T05:18:34.878Z,5.20
2023-08-18T05:21:38.619Z,2.80
2023-08-18T05:24:42.367Z,4.00
2023-08-18T05:27:46.068Z,2.13
2023-08-18T05:30:52.002Z,2.23
2023-08-18T05:33:55.813Z,5.17
2023-08-18T05:36:59.521Z,1.97
2023-08-18T05:40:03.965Z,5.63
2023-08-18T05:43:07.706Z,3.40
2023-08-18T05:46:12.846Z,6.63
2023-08-18T05:49:16.650Z,2.27
2023-08-18T05:52:20.351Z,2.03
2023-08-18T05:55:25.473Z,3.10
2023-08-18T05:58:29.336Z,3.07
2023-08-18T06:01:35.383Z,3.37
2023-08-18T06:04:39.053Z,1.20
2023-08-18T06:07:42.864Z,4.17
2023-08-18T06:10:48.248Z,2.67
2023-08-18T06:13:51.918Z,3.37
2023-08-18T06:16:56.987Z,4.60
2023-08-18T06:20:01.856Z,5.07
2023-08-18T06:23:05.892Z,3.70
2023-08-18T06:26:09.572Z,6.83
2023-08-18T06:29:13.169Z,3.03
2023-08-18T06:32:18.672Z,6.23
2023-08-18T06:35:22.342Z,5.50
2023-08-18T06:38:26.153Z,4.83
2023-08-18T06:41:29.794Z,4.23
2023-08-18T06:44:35.856Z,3.33
2023-08-18T06:47:41.382Z,3.03
2023-08-18T06:50:45.501Z,5.57
2023-08-18T06:53:49.188Z,3.80
2023-08-18T06:56:53.103Z,3.17
2023-08-18T06:59:57.174Z,5.37
2023-08-18T07:03:02.221Z,2.97
2023-08-18T07:06:06.336Z,3.53
2023-08-18T07:09:10.839Z,3.30
2023-08-18T07:12:14.669Z,3.90
2023-08-18T07:15:28.947Z,4.20
2023-08-18T07:18:34.070Z,6.70
2023-08-18T07:21:37.758Z,2.67
2023-08-18T07:24:41.736Z,4.17
2023-08-18T07:27:45.399Z,2.40
2023-08-18T07:30:49.306Z,3.57
2023-08-18T07:33:54.809Z,2.87
2023-08-18T07:36:58.758Z,2.87
2023-08-18T07:40:02.848Z,2.90
2023-08-18T07:43:07.016Z,3.20
2023-08-18T07:46:11.645Z,3.30
2023-08-18T07:49:17.044Z,3.63
2023-08-18T07:52:20.836Z,2.63
2023-08-18T07:55:25.340Z,3.63
2023-08-18T07:58:29.001Z,6.50
2023-08-18T08:01:33.073Z,5.47
2023-08-18T08:04:38.133Z,7.60
2023-08-18T08:07:42.909Z,7.33
2023-08-18T08:10:46.639Z,7.73
2023-08-18T08:13:50.361Z,5.03
2023-08-18T08:16:54.239Z,3.23
2023-08-18T08:20:01.178Z,5.37
2023-08-18T08:23:05.442Z,3.87
2023-08-18T08:26:10.101Z,3.50
2023-08-18T08:29:13.825Z,6.43
2023-08-18T08:32:17.584Z,2.17
2023-08-18T08:35:28.755Z,4.50
2023-08-18T08:38:33.068Z,2.80
2023-08-18T08:41:36.677Z,3.63
2023-08-18T08:44:43.733Z,3.00
2023-08-18T08:47:48.474Z,5.80
2023-08-18T08:51:00.608Z,3.40
2023-08-18T08:54:08.919Z,2.50
2023-08-18T08:57:14.824Z,3.47
2023-08-18T09:00:19.226Z,1.70
2023-08-18T09:03:23.405Z,2.43
2023-08-18T09:06:28.555Z,3.03
2023-08-18T09:09:32.424Z,5.03
2023-08-18T09:12:36.283Z,3.00
2023-08-18T09:15:43.711Z,4.23
2023-08-18T09:18:48.110Z,3.73
2023-08-18T09:21:56.969Z,3.10
2023-08-18T09:25:02.633Z,4.90
2023-08-18T09:28:15.672Z,4.43
2023-08-18T09:31:21.087Z,3.60
2023-08-18T09:34:25.634Z,4.50
2023-08-18T09:37:34.583Z,9.10
2023-08-18T09:40:38.346Z,3.83
2023-08-18T09:43:42.852Z,4.90
2023-08-18T09:46:52.781Z,5.00
2023-08-18T09:49:58.412Z,5.47
2023-08-18T09:53:05.623Z,6.13
2023-08-18T09:56:15.580Z,3.73
2023-08-18T09:59:28.425Z,5.10
2023-08-18T10:02:37.634Z,5.20
2023-08-18T10:05:41.784Z,4.40
2023-08-18T10:08:47.102Z,5.83
2023-08-18T10:11:53.921Z,4.60
2023-08-18T10:15:00.464Z,5.10
2023-08-18T10:18:08.999Z,5.33
2023-08-18T10:21:14.851Z,6.13
2023-08-18T10:24:20.784Z,4.13
2023-08-18T10:27:38.409Z,3.97
2023-08-18T10:30:42.505Z,4.23
2023-08-18T10:33:51.605Z,5.03
2023-08-18T10:37:01.057Z,4.53
2023-08-18T10:40:12.005Z,4.33
2023-08-18T10:43:18.098Z,5.00
2023-08-18T10:46:22.036Z,6.37
2023-08-18T10:49:25.810Z,6.20
2023-08-18T10:52:31.815Z,5.30
2023-08-18T10:55:37.007Z,4.97
2023-08-18T10:58:40.949Z,6.20
2023-08-18T11:01:44.984Z,4.17
2023-08-18T11:04:48.709Z,7.53
2023-08-18T11:07:54.574Z,4.40
2023-08-18T11:10:59.602Z,4.97
2023-08-18T11:14:03.210Z,4.77
2023-08-18T11:17:06.899Z,7.13
2023-08-18T11:20:14.208Z,7.07
2023-08-18T11:23:18.179Z,5.30
2023-08-18T11:26:23.311Z,5.43
2023-08-18T11:29:29.864Z,5.07
2023-08-18T11:32:33.875Z,7.43
2023-08-18T11:35:39.972Z,5.70
2023-08-18T11:38:44.282Z,7.13
2023-08-18T11:41:51.504Z,6.87
2023-08-18T11:44:56.482Z,4.37
2023-08-18T11:48:02.256Z,6.10
2023-08-18T11:51:06.008Z,7.50
2023-08-18T11:54:14.685Z,4.77
2023-08-18T11:57:19.842Z,6.03
2023-08-18T12:00:35.614Z,6.67
2023-08-18T12:03:41.154Z,23.73
2023-08-18T12:06:44.869Z,8.00
2023-08-18T12:09:48.620Z,4.97
2023-08-18T12:12:59.450Z,6.53
2023-08-18T12:16:04.066Z,7.87
2023-08-18T12:19:07.890Z,5.67
2023-08-18T12:22:11.869Z,5.30
2023-08-18T12:25:15.538Z,6.37
2023-08-18T12:28:20.548Z,5.63
2023-08-18T12:31:25.932Z,6.20
2023-08-18T12:34:29.661Z,5.23
2023-08-18T12:37:33.543Z,6.13
2023-08-18T12:40:37.252Z,6.87
2023-08-18T12:43:42.556Z,8.53
2023-08-18T12:46:46.324Z,6.67
2023-08-18T12:49:50.044Z,6.50
2023-08-18T12:52:53.874Z,6.13
2023-08-18T12:55:57.537Z,5.77
2023-08-18T12:59:02.580Z,8.50
2023-08-18T13:02:06.748Z,5.60
2023-08-18T13:05:10.711Z,6.07
2023-08-18T13:08:14.339Z,9.23
2023-08-18T13:11:18.085Z,5.83
2023-08-18T13:14:25.903Z,7.27
2023-08-18T13:17:30.051Z,5.73
2023-08-18T13:20:33.729Z,6.90
2023-08-18T13:23:37.486Z,4.93
2023-08-18T13:26:41.131Z,6.87
2023-08-18T13:29:48.356Z,6.17
2023-08-18T13:32:52.145Z,6.53
2023-08-18T13:35:55.861Z,5.43
2023-08-18T13:38:59.503Z,5.00
2023-08-18T13:42:04.851Z,4.93
2023-08-18T13:45:11.559Z,6.43
2023-08-18T13:48:15.306Z,5.93
2023-08-18T13:51:18.949Z,5.80
2023-08-18T13:54:22.591Z,6.17
2023-08-18T13:57:26.273Z,8.70
2023-08-18T14:00:33.217Z,6.20
2023-08-18T14:03:36.959Z,6.40
2023-08-18T14:06:40.644Z,7.07
2023-08-18T14:09:44.385Z,6.03
2023-08-18T14:12:49.453Z,7.60
2023-08-18T14:15:54.622Z,7.60
2023-08-18T14:18:58.783Z,5.77
2023-08-18T14:22:02.466Z,6.33
2023-08-18T14:25:07.422Z,7.43
2023-08-18T14:28:11.013Z,6.77
2023-08-18T14:31:16.207Z,7.97
2023-08-18T14:34:19.906Z,7.93
2023-08-18T14:37:23.988Z,6.97
2023-08-18T14:40:27.772Z,6.87
2023-08-18T14:43:31.380Z,6.40
2023-08-18T14:46:36.616Z,5.83
2023-08-18T14:49:40.407Z,5.53
2023-08-18T14:52:44.121Z,5.90
2023-08-18T14:55:51.792Z,6.13
2023-08-18T14:58:55.579Z,7.07
2023-08-18T15:02:00.784Z,6.83
2023-08-18T15:05:05.798Z,7.97
2023-08-18T15:08:09.449Z,7.53
2023-08-18T15:11:13.494Z,10.40
2023-08-18T15:14:17.327Z,8.37
2023-08-18T15:17:22.558Z,9.43
2023-08-18T15:20:26.246Z,6.17
2023-08-18T15:23:30.135Z,6.40
2023-08-18T15:26:33.863Z,8.30
2023-08-18T15:29:37.757Z,6.93
2023-08-18T15:32:42.934Z,5.77
2023-08-18T15:35:48.179Z,6.63
2023-08-18T15:38:51.894Z,7.47
2023-08-18T15:41:55.605Z,7.43
2023-08-18T15:44:59.231Z,8.17
2023-08-18T15:48:04.662Z,8.97
2023-08-18T15:51:08.424Z,8.30
2023-08-18T15:54:12.640Z,6.07
2023-08-18T15:57:16.280Z,6.20
2023-08-18T16:00:20.742Z,8.60
2023-08-18T16:03:27.313Z,6.83
2023-08-18T16:06:30.974Z,6.63
2023-08-18T16:09:34.789Z,5.83
2023-08-18T16:12:38.641Z,7.20
2023-08-18T16:15:57.784Z,7.93
2023-08-18T16:19:05.634Z,5.93
2023-08-18T16:22:09.483Z,6.20
2023-08-18T16:25:13.901Z,7.47
2023-08-18T16:28:19.549Z,5.83
2023-08-18T16:31:23.269Z,6.60
2023-08-18T16:34:29.491Z,5.93
2023-08-18T16:37:34.028Z,6.77
2023-08-18T16:40:38.015Z,6.63
2023-08-18T16:43:41.708Z,6.67
2023-08-18T16:46:45.440Z,6.53
2023-08-18T16:49:50.772Z,6.47
2023-08-18T16:52:55.462Z,7.43
2023-08-18T16:55:59.055Z,6.97
2023-08-18T16:59:02.788Z,6.57
2023-08-18T17:02:06.667Z,6.27
2023-08-18T17:05:12.617Z,6.27
2023-08-18T17:08:16.472Z,6.97
2023-08-18T17:11:20.101Z,8.67
2023-08-18T17:14:23.813Z,5.93
2023-08-18T17:17:27.516Z,6.63
2023-08-18T17:20:32.670Z,7.43
2023-08-18T17:23:36.505Z,5.93
2023-08-18T17:26:40.392Z,7.23
2023-08-18T17:29:45.053Z,6.43
2023-08-18T17:32:48.740Z,6.57
2023-08-18T17:35:53.800Z,7.53
2023-08-18T17:38:57.523Z,8.13
2023-08-18T17:42:02.317Z,9.23
2023-08-18T17:45:08.187Z,9.93
2023-08-18T17:48:14.283Z,6.00
2023-08-18T17:51:19.350Z,5.63
2023-08-18T17:54:23.110Z,8.50
2023-08-18T17:57:26.847Z,7.33
2023-08-18T18:00:30.550Z,6.00
2023-08-18T18:03:34.319Z,7.70
2023-08-18T18:06:39.625Z,6.50
2023-08-18T18:09:43.462Z,8.20
2023-08-18T18:12:47.129Z,7.17
2023-08-18T18:15:50.933Z,6.20
2023-08-18T18:18:54.704Z,7.40
2023-08-18T18:21:59.756Z,6.47
2023-08-18T18:25:04.968Z,6.83
2023-08-18T18:28:08.778Z,7.40
2023-08-18T18:31:12.648Z,6.80
2023-08-18T18:34:17.613Z,7.40
2023-08-18T18:37:22.790Z,7.53
2023-08-18T18:40:26.778Z,7.10
2023-08-18T18:43:30.484Z,7.07
2023-08-18T18:46:34.178Z,6.37
2023-08-18T18:49:37.867Z,8.00
2023-08-18T18:52:42.977Z,7.97
2023-08-18T18:55:47.675Z,8.10
2023-08-18T18:58:51.272Z,8.30
2023-08-18T19:01:55.067Z,8.43
2023-08-18T19:04:58.685Z,8.10
2023-08-18T19:08:04.075Z,10.00
2023-08-18T19:11:07.747Z,8.57
2023-08-18T19:14:11.427Z,9.30
2023-08-18T19:17:15.105Z,10.23
2023-08-18T19:20:27.928Z,8.37
2023-08-18T19:23:37.908Z,11.53
2023-08-18T19:26:47.961Z,6.97
2023-08-18T19:29:52.012Z,8.03
2023-08-18T19:32:55.742Z,7.40
2023-08-18T19:35:59.401Z,8.70
2023-08-18T19:39:05.105Z,7.57
2023-08-18T19:42:09.056Z,11.53
2023-08-18T19:45:13.669Z,10.63
2023-08-18T19:48:17.298Z,9.53
2023-08-18T19:51:20.974Z,7.67
2023-08-18T19:54:26.243Z,10.93
2023-08-18T19:57:31.488Z,12.13
2023-08-18T20:00:35.674Z,8.47
2023-08-18T20:03:39.397Z,9.30
2023-08-18T20:06:43.773Z,8.97
2023-08-18T20:09:49.020Z,10.27
2023-08-18T20:12:52.673Z,8.40
2023-08-18T20:15:57.186Z,8.70
2023-08-18T20:19:02.765Z,10.13
2023-08-18T20:22:06.909Z,8.17
2023-08-18T20:25:12.936Z,8.90
2023-08-18T20:28:16.753Z,10.20
2023-08-18T20:31:20.510Z,10.10
2023-08-18T20:34:24.339Z,9.33
2023-08-18T20:37:28.050Z,12.03
2023-08-18T20:40:34.447Z,9.97
2023-08-18T20:43:39.299Z,13.03
2023-08-18T20:46:43.194Z,12.13
2023-08-18T20:49:47.137Z,12.43
2023-08-18T20:52:50.895Z,12.50
2023-08-18T20:55:55.885Z,13.20
2023-08-18T20:58:59.625Z,13.87
2023-08-18T21:02:03.604Z,13.40
2023-08-18T21:05:08.853Z,11.17
2023-08-18T21:08:12.442Z,12.53
2023-08-18T21:11:19.241Z,12.53
2023-08-18T21:14:22.909Z,10.30
2023-08-18T21:17:27.082Z,10.53
2023-08-18T21:20:31.966Z,9.57
2023-08-18T21:23:38.422Z,9.50
2023-08-18T21:26:43.393Z,10.17
2023-08-18T21:29:49.968Z,12.63
2023-08-18T21:32:53.896Z,10.67
2023-08-18T21:35:57.631Z,10.60
2023-08-18T21:39:06.460Z,10.23
2023-08-18T21:42:11.789Z,11.33
2023-08-18T21:45:15.693Z,10.33
2023-08-18T21:48:19.430Z,11.73
2023-08-18T21:51:23.350Z,9.03
2023-08-18T21:54:29.491Z,11.50
2023-08-18T21:57:35.597Z,9.17
2023-08-18T22:00:39.368Z,9.13
2023-08-18T22:03:44.070Z,11.33
2023-08-18T22:06:48.020Z,10.43
2023-08-18T22:09:53.501Z,10.47
2023-08-18T22:12:59.716Z,8.30
2023-08-18T22:16:03.693Z,7.73
2023-08-18T22:19:07.590Z,9.00
2023-08-18T22:22:17.816Z,10.87
2023-08-18T22:25:28.422Z,12.67
2023-08-18T22:28:33.446Z,11.07
2023-08-18T22:31:37.235Z,9.93
2023-08-18T22:34:40.943Z,10.63
2023-08-18T22:37:45.784Z,9.40
2023-08-18T22:40:49.454Z,10.03
2023-08-18T22:43:54.487Z,10.13
2023-08-18T22:47:12.001Z,13.97
2023-08-18T22:50:17.441Z,12.37
2023-08-18T22:53:21.152Z,10.87
2023-08-18T22:56:24.837Z,10.67
2023-08-18T22:59:30.530Z,9.60
2023-08-18T23:02:34.345Z,10.73
2023-08-18T23:05:38.034Z,8.57
2023-08-18T23:08:41.714Z,9.20
2023-08-18T23:11:45.920Z,12.33
2023-08-18T23:14:51.158Z,15.30
2023-08-18T23:17:54.985Z,9.60
2023-08-18T23:20:58.720Z,11.57
2023-08-18T23:24:02.481Z,9.10
2023-08-18T23:27:06.389Z,8.80
2023-08-18T23:30:13.373Z,11.80
2023-08-18T23:33:17.014Z,10.40
2023-08-18T23:36:20.612Z,10.37
2023-08-18T23:39:25.903Z,10.60
2023-08-18T23:42:29.549Z,9.80
2023-08-18T23:45:34.711Z,10.07
2023-08-18T23:48:43.587Z,11.93
2023-08-18T23:51:47.345Z,12.17
2023-08-18T23:54:50.970Z,9.43
2023-08-18T23:57:55.259Z,11.57
